Time;durP1;ratioP1;P1;durP2;ratioP2;P2;SDS_P1;SDS_P2;PMS_P1;PMS_P2;Temp;Humidity;BMP_temperature;BMP_pressure;BME280_temperature;BME280_humidity;BME280_pressure;Samples;Min_cycle;Max_cycle;Signal;HPM_P1;HPM_P2
2023/10/05 00:01:02;;;;;;;0.60;0.60;;;;;;;11.00;100.00;101153.19;5087550;28;20654;-57
2023/10/05 00:03:30;;;;;;;0.60;0.60;;;;;;;11.00;100.00;101158.50;5083252;28;20058;-57
2023/10/05 00:06:05;;;;;;;0.60;0.60;;;;;;;10.99;100.00;101155.88;5067082;28;20074;-57
2023/10/05 00:08:35;;;;;;;0.60;0.60;;;;;;;10.99;100.00;101150.56;5067832;28;20024;-57
2023/10/05 00:11:01;;;;;;;0.60;0.60;;;;;;;11.05;100.00;101142.44;5076226;28;20055;-58
2023/10/05 00:13:26;;;;;;;0.60;0.60;;;;;;;11.05;100.00;101138.00;5086294;28;20036;-57
2023/10/05 00:15:52;;;;;;;0.60;0.60;;;;;;;11.03;100.00;101149.56;5066239;28;20143;-58
2023/10/05 00:18:20;;;;;;;0.60;0.60;;;;;;;11.05;100.00;101148.66;5086311;28;20024;-58
2023/10/05 00:20:48;;;;;;;0.60;0.60;;;;;;;11.50;100.00;101153.19;5086154;28;20058;-57
2023/10/05 00:23:14;;;;;;;0.60;0.60;;;;;;;11.53;100.00;101142.47;5086237;28;20177;-57
2023/10/05 00:25:39;;;;;;;0.68;0.68;;;;;;;11.46;100.00;101127.50;5083681;28;20123;-58
2023/10/05 00:28:10;;;;;;;0.60;0.60;;;;;;;11.45;100.00;101130.22;5091176;28;20024;-57
2023/10/05 00:30:35;;;;;;;0.60;0.60;;;;;;;11.42;100.00;101125.78;5087172;28;20039;-57
2023/10/05 00:33:04;;;;;;;0.60;0.60;;;;;;;11.43;100.00;101126.69;5091092;28;20061;-58
2023/10/05 00:35:33;;;;;;;0.60;0.60;;;;;;;11.43;100.00;101118.69;5091048;28;20025;-57
2023/10/05 00:38:12;;;;;;;0.70;0.70;;;;;;;11.39;100.00;101119.66;5091249;28;20031;-58
2023/10/05 00:41:08;;;;;;;0.50;0.50;;;;;;;11.38;100.00;101107.25;5080693;28;20024;-57
2023/10/05 00:43:33;;;;;;;0.60;0.60;;;;;;;11.37;100.00;101105.47;5090550;28;20067;-57
2023/10/05 00:45:59;;;;;;;0.60;0.60;;;;;;;11.34;100.00;101095.75;5077137;28;20032;-57
2023/10/05 00:48:34;;;;;;;0.50;0.50;;;;;;;11.37;100.00;101100.13;5069856;28;20781;-57
2023/10/05 00:51:23;;;;;;;0.57;0.57;;;;;;;11.39;100.00;101098.34;5069836;28;20025;-57
2023/10/05 00:53:50;;;;;;;0.60;0.60;;;;;;;11.40;100.00;101100.13;5071120;28;20027;-57
2023/10/05 00:56:16;;;;;;;0.57;0.57;;;;;;;11.44;100.00;101107.13;5088957;28;20054;-57
2023/10/05 00:58:44;;;;;;;0.60;0.60;;;;;;;11.43;100.00;101100.03;5090317;28;20056;-58
2023/10/05 01:01:21;;;;;;;0.60;0.60;;;;;;;11.46;100.00;101107.97;5087686;28;20773;-61
2023/10/05 01:04:34;;;;;;;0.55;0.55;;;;;;;11.42;100.00;101090.28;5080569;28;20079;-61
2023/10/05 01:06:49;;;;;;;0.60;0.60;;;;;;;11.33;100.00;101070.06;5063409;28;20056;-62
2023/10/05 01:12:22;;;;;;;0.50;0.50;;;;;;;11.32;100.00;101080.69;5087322;28;20048;-61
2023/10/05 01:14:51;;;;;;;0.60;0.60;;;;;;;11.31;100.00;101084.28;5087818;28;20519;-60
2023/10/05 01:17:21;;;;;;;0.60;0.60;;;;;;;11.27;100.00;101078.13;5070302;28;20107;-59
2023/10/05 01:19:53;;;;;;;0.60;0.60;;;;;;;11.26;100.00;101068.41;5087035;28;20444;-59
2023/10/05 01:22:21;;;;;;;0.60;0.60;;;;;;;11.25;100.00;101073.75;5074525;28;20094;-61
2023/10/05 01:24:48;;;;;;;0.70;0.70;;;;;;;11.23;99.79;101070.22;5075107;28;20019;-60
2023/10/05 01:27:14;;;;;;;0.60;0.60;;;;;;;11.20;100.00;101062.31;5090152;28;20055;-60
2023/10/05 01:29:40;;;;;;;0.60;0.60;;;;;;;11.14;100.00;101065.06;5088340;28;20101;-60
2023/10/05 01:32:07;;;;;;;0.50;0.50;;;;;;;11.11;100.00;101070.44;5077863;28;20484;-61
2023/10/05 01:34:32;;;;;;;0.60;0.60;;;;;;;11.11;100.00;101065.13;5090135;28;20028;-61
2023/10/05 01:36:58;;;;;;;0.57;0.57;;;;;;;11.12;100.00;101064.22;5089445;28;20383;-60
2023/10/05 01:39:25;;;;;;;0.60;0.60;;;;;;;11.10;100.00;101079.34;5085465;28;20035;-60
2023/10/05 01:41:51;;;;;;;0.70;0.70;;;;;;;11.01;100.00;101085.72;5086599;28;20486;-61
2023/10/05 01:44:17;;;;;;;0.60;0.60;;;;;;;10.99;100.00;101076.00;5088818;28;20023;-61
2023/10/05 01:46:42;;;;;;;0.60;0.60;;;;;;;11.01;100.00;101074.19;5084617;28;20035;-61
2023/10/05 01:49:08;;;;;;;0.50;0.50;;;;;;;11.02;100.00;101074.16;5089067;28;20030;-61
2023/10/05 01:51:34;;;;;;;0.68;0.68;;;;;;;11.04;100.00;101076.78;5078959;28;20055;-61
2023/10/05 01:54:11;;;;;;;0.60;0.60;;;;;;;11.02;100.00;101076.81;5068796;28;20028;-61
2023/10/05 01:56:39;;;;;;;0.70;0.70;;;;;;;11.02;100.00;101075.94;5070386;28;20028;-61
2023/10/05 01:59:06;;;;;;;0.60;0.60;;;;;;;10.96;99.89;101082.25;5068030;28;20545;-61
2023/10/05 02:01:36;;;;;;;0.60;0.60;;;;;;;11.00;99.94;101077.75;5066976;28;20020;-62
2023/10/05 02:04:03;;;;;;;0.50;0.50;;;;;;;10.97;100.00;101075.16;5066822;28;20027;-61
2023/10/05 02:06:28;;;;;;;0.70;0.70;;;;;;;10.95;100.00;101068.97;5069593;28;20115;-61
2023/10/05 02:08:54;;;;;;;0.70;0.70;;;;;;;10.94;100.00;101070.75;5067450;28;20039;-61
2023/10/05 02:11:27;;;;;;;0.50;0.50;;;;;;;10.98;100.00;101063.59;5079345;28;20055;-59
2023/10/05 02:13:57;;;;;;;0.60;0.60;;;;;;;10.98;100.00;101064.47;5087275;28;20069;-58
2023/10/05 02:16:23;;;;;;;0.60;0.60;;;;;;;11.05;100.00;101071.47;5084475;28;20391;-59
2023/10/05 02:18:48;;;;;;;0.50;0.50;;;;;;;11.14;100.00;101067.72;5089123;28;20039;-59
2023/10/05 02:21:19;;;;;;;0.63;0.63;;;;;;;11.18;100.00;101069.44;5089260;28;20024;-59
2023/10/05 02:23:47;;;;;;;0.60;0.60;;;;;;;11.26;100.00;101070.16;5088987;28;20105;-59
2023/10/05 02:28:55;;;;;;;0.60;0.60;;;;;;;11.32;100.00;101067.38;5069022;28;20830;-58
2023/10/05 02:31:21;;;;;;;0.60;0.60;;;;;;;11.33;100.00;101063.84;5068988;28;20052;-59
2023/10/05 02:33:47;;;;;;;0.60;0.60;;;;;;;11.37;100.00;101057.53;5071307;28;20050;-58
2023/10/05 02:38:49;;;;;;;0.60;0.60;;;;;;;11.49;100.00;101059.94;5068664;28;20044;-59
2023/10/05 02:41:16;;;;;;;;;;;;;;;11.55;100.00;101057.16;5082732;28;20153;-58
2023/10/05 02:43:51;;;;;;;0.60;0.60;;;;;;;11.62;100.00;101045.47;5088382;28;20679;-58
2023/10/05 02:46:17;;;;;;;0.60;0.60;;;;;;;11.22;100.00;101047.19;5084919;28;20408;-58
2023/10/05 02:48:43;;;;;;;0.70;0.70;;;;;;;11.10;100.00;101039.41;5088079;28;20035;-58
2023/10/05 02:51:11;;;;;;;0.60;0.60;;;;;;;11.04;100.00;101036.84;5088027;28;20600;-58
2023/10/05 02:53:41;;;;;;;0.52;0.52;;;;;;;11.05;100.00;101039.50;5084913;28;20132;-58
2023/10/05 02:56:21;;;;;;;0.50;0.50;;;;;;;11.09;100.00;101034.97;5088449;28;20096;-58
2023/10/05 02:58:50;;;;;;;0.50;0.50;;;;;;;11.10;100.00;101028.75;5075814;28;20150;-57
2023/10/05 03:01:16;;;;;;;0.60;0.60;;;;;;;11.11;100.00;101038.50;5066569;28;20447;-58
2023/10/05 03:03:43;;;;;;;0.55;0.55;;;;;;;11.12;100.00;101037.63;5069441;28;20101;-58
2023/10/05 03:06:10;;;;;;;0.60;0.60;;;;;;;11.11;100.00;101044.72;5085993;28;20403;-58
2023/10/05 03:08:36;;;;;;;0.60;0.60;;;;;;;11.11;100.00;101049.16;5085167;28;20038;-58
2023/10/05 03:11:08;;;;;;;0.57;0.57;;;;;;;11.07;100.00;101058.13;5076087;28;20123;-58
2023/10/05 03:13:36;;;;;;;0.50;0.50;;;;;;;10.98;100.00;101053.81;5088002;28;20487;-58
2023/10/05 03:16:06;;;;;;;0.60;0.60;;;;;;;10.92;100.00;101069.03;5074775;28;20035;-58
2023/10/05 03:18:32;;;;;;;0.60;0.60;;;;;;;10.85;100.00;101056.72;5066858;28;20056;-58
2023/10/05 03:20:58;;;;;;;0.68;0.68;;;;;;;10.87;100.00;101061.13;5067059;28;20020;-58
2023/10/05 03:23:23;;;;;;;0.60;0.60;;;;;;;10.85;100.00;101062.03;5066694;28;20040;-58
2023/10/05 03:25:52;;;;;;;0.60;0.60;;;;;;;10.85;100.00;101062.03;5069484;28;20028;-59
2023/10/05 03:28:19;;;;;;;0.60;0.60;;;;;;;10.84;100.00;101061.16;5065900;28;20097;-58
2023/10/05 03:30:48;;;;;;;0.60;0.60;;;;;;;10.85;100.00;101062.03;5073240;28;20032;-59
2023/10/05 03:33:17;;;;;;;0.60;0.60;;;;;;;10.89;100.00;101069.09;5085347;28;20043;-58
2023/10/05 03:35:45;;;;;;;0.60;0.60;;;;;;;10.89;100.00;101063.75;5086682;28;20032;-58
2023/10/05 03:38:12;;;;;;;0.60;0.60;;;;;;;10.97;100.00;101073.34;5085800;28;20099;-58
2023/10/05 03:40:43;;;;;;;0.60;0.60;;;;;;;11.07;100.00;101074.09;5084406;28;20074;-58
2023/10/05 03:43:10;;;;;;;0.50;0.50;;;;;;;11.08;100.00;101065.19;5087527;28;20027;-57
2023/10/05 03:45:38;;;;;;;0.60;0.60;;;;;;;11.05;100.00;101075.88;5077649;28;20039;-57
2023/10/05 03:48:05;;;;;;;0.50;0.50;;;;;;;11.10;100.00;101077.59;5069586;28;20042;-57
2023/10/05 03:50:31;;;;;;;0.55;0.55;;;;;;;11.11;100.00;101078.44;5080719;28;20761;-57
2023/10/05 03:52:57;;;;;;;0.60;0.60;;;;;;;11.17;100.00;101075.69;5085167;28;20024;-57
2023/10/05 03:55:24;;;;;;;0.50;0.50;;;;;;;11.17;100.00;101081.00;5076532;28;20067;-58
2023/10/05 03:57:50;;;;;;;0.50;0.50;;;;;;;11.18;100.00;101085.41;5084562;28;20027;-57
2023/10/05 04:02:47;;;;;;;0.60;0.60;;;;;;;11.21;100.00;101082.69;5087272;28;20028;-57
2023/10/05 04:05:14;;;;;;;0.60;0.60;;;;;;;11.21;100.00;101093.34;5090429;28;20035;-57
2023/10/05 04:07:40;;;;;;;0.60;0.60;;;;;;;11.20;100.00;101088.94;5091008;28;20130;-58
2023/10/05 04:10:07;;;;;;;0.50;0.50;;;;;;;11.19;100.00;101087.16;5083761;28;20111;-58
2023/10/05 04:12:32;;;;;;;0.50;0.50;;;;;;;11.15;100.00;101083.66;5091242;28;20098;-58
2023/10/05 04:15:00;;;;;;;0.60;0.60;;;;;;;11.15;100.00;101088.13;5086638;28;20044;-57
2023/10/05 04:17:26;;;;;;;0.60;0.60;;;;;;;11.11;100.00;101086.41;5071125;28;20021;-59
2023/10/05 04:19:52;;;;;;;0.50;0.50;;;;;;;11.13;100.00;101090.84;5071119;28;20028;-57
2023/10/05 04:22:18;;;;;;;0.60;0.60;;;;;;;11.15;100.00;101082.81;5073603;28;20054;-58
2023/10/05 04:24:45;;;;;;;0.50;0.50;;;;;;;11.15;100.00;101090.81;5071257;28;20111;-57
2023/10/05 04:27:10;;;;;;;0.55;0.55;;;;;;;11.14;100.00;101105.00;5075992;28;20073;-57
2023/10/05 04:29:37;;;;;;;0.60;0.60;;;;;;;11.12;100.00;101089.06;5073461;28;20032;-57
2023/10/05 04:32:12;;;;;;;0.60;0.60;;;;;;;11.12;100.00;101082.88;5071042;28;20373;-58
2023/10/05 04:34:37;;;;;;;0.60;0.60;;;;;;;11.14;100.00;101081.03;5070586;28;20033;-58
2023/10/05 04:37:03;;;;;;;0.60;0.60;;;;;;;11.12;100.00;101074.88;5073383;28;20040;-58
2023/10/05 04:39:30;;;;;;;0.50;0.50;;;;;;;11.16;100.00;101079.22;5073198;28;20050;-58
2023/10/05 04:41:57;;;;;;;0.60;0.60;;;;;;;11.14;100.00;101083.69;5087857;28;20024;-57
2023/10/05 04:44:23;;;;;;;0.60;0.60;;;;;;;11.17;100.00;101081.88;5080291;28;20032;-57
2023/10/05 04:46:49;;;;;;;0.60;0.60;;;;;;;11.23;100.00;101083.56;5072864;28;20376;-57
2023/10/05 04:49:16;;;;;;;0.60;0.60;;;;;;;11.25;100.00;101084.41;5087257;28;20039;-58
2023/10/05 04:51:43;;;;;;;0.50;0.50;;;;;;;11.26;100.00;101086.16;5089836;28;20505;-58
2023/10/05 04:54:10;;;;;;;0.60;0.60;;;;;;;11.30;100.00;101088.72;5089853;28;20111;-58
2023/10/05 04:56:43;;;;;;;0.60;0.60;;;;;;;11.33;100.00;101087.81;5085536;28;20058;-58
2023/10/05 05:04:27;;;;;;;0.60;0.60;;;;;;;11.39;100.00;101079.69;5085221;28;20262;-57
2023/10/05 05:06:55;;;;;;;0.50;0.50;;;;;;;11.41;100.00;101076.09;5085583;28;20077;-58
2023/10/05 05:09:21;;;;;;;0.50;0.50;;;;;;;11.38;100.00;101075.28;5069599;28;20033;-58
2023/10/05 05:11:47;;;;;;;0.50;0.50;;;;;;;11.26;100.00;101070.16;5084859;28;20106;-57
2023/10/05 05:14:13;;;;;;;0.50;0.50;;;;;;;11.20;100.00;101064.97;5086584;28;20055;-57
2023/10/05 05:16:40;;;;;;;0.60;0.60;;;;;;;11.17;100.00;101059.72;5090160;28;20028;-58
2023/10/05 05:19:06;;;;;;;0.60;0.60;;;;;;;11.13;100.00;101058.00;5090213;28;20081;-57
2023/10/05 05:21:34;;;;;;;0.57;0.57;;;;;;;11.10;100.00;101048.28;5089171;28;20020;-57
2023/10/05 05:24:00;;;;;;;0.60;0.60;;;;;;;11.11;100.00;101049.16;5089068;28;20081;-57
2023/10/05 05:26:26;;;;;;;0.60;0.60;;;;;;;11.15;100.00;101057.03;5090059;28;20387;-57
2023/10/05 05:28:52;;;;;;;0.60;0.60;;;;;;;11.17;100.00;101059.72;5087010;28;20035;-57
2023/10/05 05:31:18;;;;;;;0.50;0.50;;;;;;;11.19;100.00;101057.88;5090410;28;20031;-57
2023/10/05 05:33:48;;;;;;;0.60;0.60;;;;;;;11.21;100.00;101050.72;5089728;28;20020;-57
2023/10/05 05:36:13;;;;;;;0.52;0.52;;;;;;;11.25;100.00;101049.78;5090001;28;20035;-57
2023/10/05 05:38:39;;;;;;;0.60;0.60;;;;;;;11.22;100.00;101041.88;5074702;28;20029;-58
2023/10/05 05:41:12;;;;;;;0.60;0.60;;;;;;;11.24;100.00;101064.88;5079688;28;20038;-60
2023/10/05 05:43:41;;;;;;;0.60;0.60;;;;;;;11.23;100.00;101072.91;5068947;28;20122;-60
2023/10/05 05:46:14;;;;;;;0.55;0.55;;;;;;;11.24;100.00;101082.63;5069446;28;20030;-61
2023/10/05 05:48:43;;;;;;;0.70;0.70;;;;;;;11.28;100.00;101084.34;5066657;28;20052;-61
2023/10/05 05:51:22;;;;;;;0.60;0.60;;;;;;;11.28;100.00;101084.34;5068477;28;20287;-60
2023/10/05 05:53:48;;;;;;;0.55;0.55;;;;;;;11.29;100.00;101078.09;5086572;28;20032;-60
2023/10/05 05:56:18;;;;;;;0.60;0.60;;;;;;;11.25;100.00;101079.09;5081819;28;20046;-61
2023/10/05 05:58:47;;;;;;;0.50;0.50;;;;;;;11.23;100.00;101081.78;5088193;28;20486;-60
2023/10/05 06:01:20;;;;;;;0.60;0.60;;;;;;;11.24;100.00;101078.19;5089438;28;20016;-61
2023/10/05 06:03:49;;;;;;;;;;;;;;;11.22;100.00;101090.66;5088479;28;20031;-61
2023/10/05 06:06:16;;;;;;;0.50;0.50;;;;;;;11.23;100.00;101092.44;5078667;28;20103;-61
2023/10/05 06:08:42;;;;;;;0.60;0.60;;;;;;;11.28;100.00;101090.56;5088886;28;20126;-60
2023/10/05 06:11:08;;;;;;;0.60;0.60;;;;;;;11.34;100.00;101102.88;5088397;28;20506;-61
2023/10/05 06:13:37;;;;;;;0.50;0.50;;;;;;;11.45;100.00;101114.22;5084752;28;20086;-61
2023/10/05 06:16:10;;;;;;;0.50;0.50;;;;;;;11.54;100.00;101106.03;5088226;28;20119;-60
2023/10/05 06:18:36;;;;;;;0.50;0.50;;;;;;;11.67;100.00;101107.59;5088859;28;20078;-61
2023/10/05 06:21:02;;;;;;;0.60;0.60;;;;;;;11.78;100.00;101110.91;5089165;28;20110;-60
2023/10/05 06:23:28;;;;;;;0.50;0.50;;;;;;;11.91;100.00;101105.31;5057526;28;20024;-61
2023/10/05 06:25:55;;;;;;;0.60;0.60;;;;;;;12.09;100.00;101108.50;5083128;28;20035;-60
2023/10/05 06:28:22;;;;;;;0.50;0.50;;;;;;;12.55;100.00;101103.91;5088284;28;20032;-61
2023/10/05 06:30:49;;;;;;;0.50;0.50;;;;;;;13.11;100.00;101112.31;5084406;28;20062;-61
2023/10/05 06:33:15;;;;;;;0.40;0.40;;;;;;;13.33;100.00;101111.78;5088211;28;20039;-60
2023/10/05 06:35:40;;;;;;;0.50;0.50;;;;;;;13.24;100.00;101118.22;5088049;28;20563;-61
2023/10/05 06:38:06;;;;;;;0.50;0.50;;;;;;;13.15;100.00;101119.34;5087922;28;20036;-60
2023/10/05 06:40:33;;;;;;;0.50;0.50;;;;;;;13.10;100.00;101121.25;5083710;28;20525;-61
2023/10/05 06:43:00;;;;;;;0.50;0.50;;;;;;;13.04;100.00;101116.06;5083406;28;20032;-60
2023/10/05 06:45:25;;;;;;;0.50;0.50;;;;;;;13.10;100.00;101126.59;5083669;28;20028;-60
2023/10/05 06:47:51;;;;;;;0.50;0.50;;;;;;;13.05;100.00;101128.50;5086390;28;20035;-60
2023/10/05 06:50:17;;;;;;;0.45;0.45;;;;;;;13.09;100.00;101138.22;5085120;28;20040;-57
2023/10/05 06:52:44;;;;;;;0.40;0.40;;;;;;;13.14;100.00;101138.09;5068324;28;20504;-58
2023/10/05 06:55:12;;;;;;;0.40;0.40;;;;;;;13.23;100.00;101140.50;5076185;28;20110;-57
2023/10/05 06:57:43;;;;;;;0.40;0.40;;;;;;;13.31;100.00;101130.50;5078077;28;20390;-57
2023/10/05 07:00:16;;;;;;;0.50;0.50;;;;;;;13.37;100.00;101134.81;5066146;28;20376;-57
2023/10/05 07:02:45;;;;;;;0.40;0.40;;;;;;;13.38;100.00;101126.75;5082664;28;20360;-57
2023/10/05 07:05:12;;;;;;;0.40;0.40;;;;;;;13.39;100.00;101123.19;5087405;28;20459;-57
2023/10/05 07:07:38;;;;;;;0.40;0.40;;;;;;;13.43;100.00;101129.28;5088032;28;20036;-57
2023/10/05 07:10:08;;;;;;;0.40;0.40;;;;;;;13.49;99.36;101134.50;5087588;28;20439;-57
2023/10/05 07:12:35;;;;;;;0.40;0.40;;;;;;;13.55;99.31;101147.69;5080359;28;20112;-57
2023/10/05 07:15:01;;;;;;;0.40;0.40;;;;;;;13.60;99.01;101148.44;5077867;28;20020;-57
2023/10/05 07:17:29;;;;;;;0.40;0.40;;;;;;;13.67;99.47;101150.03;5077063;28;20031;-57
2023/10/05 07:19:54;;;;;;;0.40;0.40;;;;;;;13.74;99.14;101146.28;5072470;28;20122;-57
2023/10/05 07:22:21;;;;;;;0.40;0.40;;;;;;;13.78;98.78;101143.47;5086471;28;20058;-57
2023/10/05 07:24:46;;;;;;;0.40;0.40;;;;;;;13.81;98.34;101153.19;5087805;28;20452;-57
2023/10/05 07:27:12;;;;;;;0.40;0.40;;;;;;;13.87;97.93;101158.41;5071872;28;20161;-57
2023/10/05 07:29:37;;;;;;;0.40;0.40;;;;;;;13.92;98.42;101162.69;5077724;28;20046;-56
2023/10/05 07:32:06;;;;;;;0.40;0.40;;;;;;;14.01;97.87;101167.78;5086288;28;20028;-57
2023/10/05 07:34:31;;;;;;;0.40;0.40;;;;;;;14.05;98.03;101174.78;5086965;28;20026;-57
2023/10/05 07:36:57;;;;;;;0.35;0.35;;;;;;;14.10;97.64;101172.00;5077727;28;20024;-57
2023/10/05 07:39:23;;;;;;;0.30;0.30;;;;;;;14.10;96.07;101166.66;5086532;28;20034;-57
2023/10/05 07:41:52;;;;;;;0.40;0.40;;;;;;;14.03;95.71;101162.38;5067515;28;20028;-57
2023/10/05 07:44:17;;;;;;;0.40;0.40;;;;;;;14.10;95.40;101167.50;5086265;28;20038;-57
2023/10/05 07:46:43;;;;;;;0.40;0.40;;;;;;;14.08;95.47;101161.34;5082195;28;20032;-57
2023/10/05 07:49:09;;;;;;;0.30;0.30;;;;;;;14.20;96.03;101163.66;5086245;28;20031;-57
2023/10/05 07:51:35;;;;;;;0.30;0.30;;;;;;;14.31;95.97;101172.31;5083182;28;20047;-57
2023/10/05 07:54:00;;;;;;;0.40;0.40;;;;;;;14.45;95.85;101180.78;5087791;28;20398;-58
2023/10/05 07:56:26;;;;;;;0.40;0.40;;;;;;;14.59;94.47;101199.13;5087103;28;20032;-57
2023/10/05 07:58:51;;;;;;;0.40;0.40;;;;;;;14.60;94.23;101190.16;5083675;28;20032;-57
2023/10/05 08:01:18;;;;;;;0.40;0.40;;;;;;;14.68;92.94;101206.84;5084297;28;20069;-60
2023/10/05 08:03:44;;;;;;;0.40;0.40;;;;;;;14.75;93.08;101208.44;5078370;28;20137;-60
2023/10/05 08:06:14;;;;;;;0.40;0.40;;;;;;;14.92;92.49;101206.13;5085977;28;20491;-60
2023/10/05 08:08:43;;;;;;;0.30;0.30;;;;;;;15.09;92.33;101208.28;5084504;28;20038;-59
2023/10/05 08:11:12;;;;;;;0.30;0.30;;;;;;;15.33;93.72;101211.03;5086925;28;20051;-60
2023/10/05 08:13:37;;;;;;;0.30;0.30;;;;;;;15.55;92.57;101208.53;5077059;28;20051;-60
2023/10/05 08:16:03;;;;;;;0.30;0.30;;;;;;;15.78;91.29;101198.75;5085480;28;20036;-60
2023/10/05 08:18:29;;;;;;;0.30;0.30;;;;;;;16.10;89.65;101204.78;5085215;28;20035;-60
2023/10/05 08:20:54;;;;;;;0.30;0.30;;;;;;;16.51;88.42;101210.41;5068480;28;20028;-60
2023/10/05 08:23:20;;;;;;;0.20;0.20;;;;;;;16.98;86.30;101205.88;5067207;28;20020;-60
2023/10/05 08:25:46;;;;;;;0.20;0.20;;;;;;;17.43;83.73;101213.91;5069402;28;20032;-59
2023/10/05 08:28:12;;;;;;;0.30;0.30;;;;;;;17.65;79.35;101222.84;5065709;28;20078;-60
2023/10/05 08:30:45;;;;;;;0.30;0.30;;;;;;;17.81;77.83;101214.03;5065436;28;20672;-60
2023/10/05 08:33:15;;;;;;;0.20;0.20;;;;;;;17.95;76.18;101206.25;5065007;28;20058;-60
2023/10/05 08:35:41;;;;;;;0.25;0.25;;;;;;;18.06;75.16;101201.28;5067651;28;20037;-60
2023/10/05 08:38:15;;;;;;;0.20;0.20;;;;;;;18.28;73.77;101199.38;5065067;28;20678;-60
2023/10/05 08:40:42;;;;;;;0.20;0.20;;;;;;;18.74;73.26;101202.66;5069451;28;20024;-59
2023/10/05 08:43:09;;;;;;;0.20;0.20;;;;;;;19.06;70.89;101207.41;5068264;28;20036;-60
2023/10/05 08:45:45;;;;;;;0.20;0.20;;;;;;;19.40;68.81;101199.44;5065931;28;20091;-60
2023/10/05 08:48:18;;;;;;;0.20;0.20;;;;;;;19.75;68.11;101198.53;5069572;28;20496;-60
2023/10/05 08:50:46;;;;;;;0.20;0.20;;;;;;;19.88;67.45;101194.22;5072487;28;20036;-60
2023/10/05 08:53:13;;;;;;;0.20;0.20;;;;;;;20.10;65.85;101188.59;5070762;28;20039;-59
2023/10/05 08:55:43;;;;;;;0.20;0.20;;;;;;;19.73;65.60;101186.91;5073599;28;20025;-59
2023/10/05 08:58:09;;;;;;;0.20;0.20;;;;;;;20.19;65.28;101190.81;5070629;28;20024;-60
2023/10/05 09:00:40;;;;;;;0.20;0.20;;;;;;;20.73;64.36;101180.56;5076041;28;20877;-59
2023/10/05 09:03:28;;;;;;;0.20;0.20;;;;;;;21.31;61.00;101185.38;5089650;28;20020;-59
2023/10/05 09:06:21;;;;;;;0.20;0.20;;;;;;;21.93;58.00;101196.97;5070045;28;20043;-59
2023/10/05 09:09:13;;;;;;;0.20;0.20;;;;;;;22.18;57.71;101212.63;5070358;28;20104;-59
2023/10/05 09:11:39;;;;;;;0.15;0.15;;;;;;;22.35;55.83;101204.31;5074527;28;20071;-57
2023/10/05 09:14:12;;;;;;;0.20;0.20;;;;;;;22.12;55.03;101213.84;5069626;28;20041;-57
2023/10/05 09:16:42;;;;;;;0.13;0.13;;;;;;;21.98;57.81;101218.38;5077497;28;20115;-57
2023/10/05 09:19:15;;;;;;;0.20;0.20;;;;;;;21.89;56.99;101221.66;5086376;28;20391;-57
2023/10/05 09:21:44;;;;;;;0.10;0.10;;;;;;;22.01;57.41;101216.34;5078933;28;20040;-57
2023/10/05 09:24:23;;;;;;;0.10;0.10;;;;;;;22.38;56.80;101212.25;5070071;28;20032;-57
2023/10/05 09:26:58;;;;;;;0.10;0.10;;;;;;;23.00;55.27;101206.44;5071150;28;20063;-57
2023/10/05 09:29:28;;;;;;;0.10;0.10;;;;;;;23.46;53.52;101209.75;5068961;28;20071;-57
2023/10/05 09:31:54;;;;;;;0.10;0.10;;;;;;;23.96;52.55;101215.34;5069325;28;20024;-57
2023/10/05 09:34:39;;;;;;;0.10;0.10;;;;;;;24.29;48.48;101209.44;5069091;28;20081;-57
2023/10/05 09:37:06;;;;;;;0.10;0.10;;;;;;;24.52;48.26;101217.75;5071385;28;20131;-57
2023/10/05 09:40:04;;;;;;;0.10;0.10;;;;;;;24.25;47.08;101213.38;5067880;28;20438;-57
2023/10/05 09:42:34;;;;;;;0.10;0.10;;;;;;;23.62;48.98;101218.63;5067928;28;20045;-57
2023/10/05 09:45:08;;;;;;;0.10;0.10;;;;;;;23.26;50.62;101216.50;5068669;28;20048;-57
2023/10/05 09:47:35;;;;;;;0.10;0.10;;;;;;;22.73;52.37;101219.09;5070984;28;20069;-56
2023/10/05 09:50:09;;;;;;;0.10;0.10;;;;;;;22.59;53.94;101224.50;5088540;28;20040;-58
2023/10/05 09:52:38;;;;;;;0.10;0.10;;;;;;;22.74;54.18;101228.09;5071244;28;20028;-57
2023/10/05 09:55:05;;;;;;;0.10;0.10;;;;;;;22.94;52.64;101231.28;5076725;28;20036;-57
2023/10/05 09:57:40;;;;;;;0.10;0.10;;;;;;;23.48;52.52;101225.94;5072063;28;20047;-57
2023/10/05 10:00:11;;;;;;;0.10;0.10;;;;;;;24.09;48.60;101229.00;5071421;28;20031;-57
2023/10/05 10:02:39;;;;;;;0.10;0.10;;;;;;;24.62;49.09;101226.09;5067737;28;20031;-57
2023/10/05 10:05:26;;;;;;;0.10;0.10;;;;;;;24.85;47.80;101228.09;5069204;28;20759;-57
2023/10/05 10:07:58;;;;;;;0.10;0.10;;;;;;;24.44;48.96;101224.69;5068673;28;20043;-57
2023/10/05 10:10:25;;;;;;;0.10;0.10;;;;;;;24.48;49.00;101231.69;5071182;28;20595;-57
2023/10/05 10:12:52;;;;;;;0.10;0.10;;;;;;;24.95;47.66;101226.44;5086603;28;20032;-57
2023/10/05 10:15:33;;;;;;;0.10;0.10;;;;;;;24.64;48.14;101222.28;5068204;28;20409;-57
2023/10/05 10:18:14;;;;;;;0.10;0.10;;;;;;;25.09;47.95;101212.66;5072308;28;20544;-57
2023/10/05 10:20:51;;;;;;;0.10;0.10;;;;;;;24.64;48.64;101203.22;5068292;28;20523;-59
2023/10/05 10:23:35;;;;;;;0.10;0.10;;;;;;;24.36;48.94;101205.34;5074184;28;20627;-59
2023/10/05 10:26:18;;;;;;;0.10;0.10;;;;;;;23.87;49.89;101196.09;5085754;28;20442;-59
2023/10/05 10:31:14;;;;;;;0.10;0.10;;;;;;;22.73;52.29;101191.97;5086252;28;20017;-59
2023/10/05 10:33:40;;;;;;;0.10;0.10;;;;;;;22.29;54.91;101183.00;5068863;28;20021;-59
2023/10/05 10:36:18;;;;;;;0.10;0.10;;;;;;;21.94;55.97;101187.88;5067088;28;20036;-59
2023/10/05 10:38:45;;;;;;;0.10;0.10;;;;;;;21.75;57.76;101191.75;5069962;28;20093;-59
2023/10/05 10:41:11;;;;;;;0.10;0.10;;;;;;;21.62;57.82;101201.56;5070220;28;20770;-59
2023/10/05 10:43:37;;;;;;;0.10;0.10;;;;;;;21.54;59.03;101201.16;5068518;28;20066;-59
2023/10/05 10:46:19;;;;;;;0.10;0.10;;;;;;;21.52;58.61;101213.91;5068478;28;20091;-59
2023/10/05 10:48:53;;;;;;;0.10;0.10;;;;;;;21.63;56.92;101219.59;5070664;28;20107;-59
2023/10/05 10:51:21;;;;;;;0.10;0.10;;;;;;;21.69;60.00;101219.22;5068433;28;20834;-59
2023/10/05 10:53:55;;;;;;;0.10;0.10;;;;;;;22.16;56.66;101225.38;5070311;28;20100;-59
2023/10/05 10:56:27;;;;;;;0.10;0.10;;;;;;;21.95;56.15;101226.69;5086012;28;20020;-59
2023/10/05 10:59:09;;;;;;;0.10;0.10;;;;;;;22.17;57.27;101219.00;5082858;28;20074;-59
2023/10/05 11:01:42;;;;;;;0.10;0.10;;;;;;;22.37;55.22;101224.09;5068188;28;20052;-59
2023/10/05 11:04:24;;;;;;;0.10;0.10;;;;;;;22.91;55.01;101211.63;5086802;28;20478;-59
2023/10/05 11:07:05;;;;;;;0.10;0.10;;;;;;;23.58;53.25;101210.78;5085594;28;20040;-59
2023/10/05 11:09:35;;;;;;;0.10;0.10;;;;;;;24.21;50.19;101211.84;5078255;28;20484;-59
2023/10/05 11:12:10;;;;;;;0.10;0.10;;;;;;;24.55;49.11;101211.19;5078906;28;20475;-59
2023/10/05 11:14:45;;;;;;;0.10;0.10;;;;;;;24.67;47.88;101207.59;5067459;28;20039;-59
2023/10/05 11:17:35;;;;;;;0.10;0.10;;;;;;;24.62;48.25;101199.78;5068626;28;20020;-59
2023/10/05 11:20:18;;;;;;;0.10;0.10;;;;;;;24.88;48.52;101187.03;5084511;28;20066;-59
2023/10/05 11:22:43;;;;;;;0.10;0.10;;;;;;;25.83;46.77;101177.94;5079654;28;20372;-59
2023/10/05 11:25:16;;;;;;;0.10;0.10;;;;;;;26.30;44.25;101165.19;5084445;28;20039;-59
2023/10/05 11:27:48;;;;;;;0.10;0.10;;;;;;;25.86;44.25;101166.78;5075831;28;20020;-59
2023/10/05 11:30:18;;;;;;;0.10;0.10;;;;;;;25.30;46.63;101172.97;5068682;28;20856;-59
2023/10/05 11:32:56;;;;;;;0.00;0.00;;;;;;;25.13;46.52;101176.06;5076286;28;20772;-59
2023/10/05 11:35:42;;;;;;;0.10;0.10;;;;;;;25.00;44.88;101158.91;5068988;28;20025;-58
2023/10/05 11:38:14;;;;;;;0.10;0.10;;;;;;;25.00;45.50;101167.06;5066689;28;20101;-59
2023/10/05 11:40:49;;;;;;;0.08;0.08;;;;;;;25.05;46.92;101170.31;5072751;28;20476;-59
2023/10/05 11:43:16;;;;;;;0.10;0.10;;;;;;;25.14;45.87;101185.97;5082728;28;20034;-59
2023/10/05 11:46:12;;;;;;;0.10;0.10;;;;;;;25.01;45.95;101187.84;5073165;28;20040;-59
2023/10/05 11:48:42;;;;;;;0.10;0.10;;;;;;;24.95;45.65;101177.44;5078636;28;20145;-59
2023/10/05 11:51:11;;;;;;;0.10;0.10;;;;;;;25.10;46.35;101170.84;5074658;28;20078;-59